createdAt,value
2023-05-25T00:01:28.539Z,92.20
2023-05-25T00:03:56.879Z,92.30
2023-05-25T00:06:26.156Z,92.40
2023-05-25T00:08:55.468Z,92.50
2023-05-25T00:11:23.522Z,92.60
2023-05-25T00:13:50.829Z,92.70
2023-05-25T00:16:17.837Z,92.90
2023-05-25T00:18:45.435Z,93.00
2023-05-25T00:21:14.107Z,93.20
2023-05-25T00:23:41.072Z,93.20
2023-05-25T00:26:08.437Z,93.30
2023-05-25T00:28:35.400Z,93.30
2023-05-25T00:31:02.420Z,93.40
2023-05-25T00:33:29.381Z,93.50
2023-05-25T00:35:57.304Z,93.50
2023-05-25T00:38:25.712Z,93.60
2023-05-25T00:40:56.553Z,93.50
2023-05-25T00:43:23.569Z,93.60
2023-05-25T00:45:53.679Z,93.70
2023-05-25T00:48:20.987Z,93.80
2023-05-25T00:50:48.072Z,93.80
2023-05-25T00:53:15.296Z,93.80
2023-05-25T00:55:47.454Z,93.90
2023-05-25T00:58:18.003Z,94.00
2023-05-25T01:00:46.733Z,94.10
2023-05-25T01:03:17.785Z,94.20
2023-05-25T01:05:48.066Z,94.20
2023-05-25T01:08:17.796Z,94.40
2023-05-25T01:10:49.299Z,94.40
2023-05-25T01:13:18.630Z,94.50
2023-05-25T01:15:47.201Z,94.50
2023-05-25T01:18:15.680Z,94.50
2023-05-25T01:20:57.106Z,94.60
2023-05-25T01:23:30.955Z,95.00
2023-05-25T01:26:02.431Z,94.90
2023-05-25T01:28:40.239Z,94.80
2023-05-25T01:31:09.305Z,94.90
2023-05-25T01:33:37.399Z,95.00
2023-05-25T01:36:06.703Z,95.10
2023-05-25T01:38:34.329Z,95.20
2023-05-25T01:41:01.237Z,95.20
2023-05-25T01:43:28.280Z,95.20
2023-05-25T01:46:02.808Z,95.30
2023-05-25T01:48:37.687Z,95.40
2023-05-25T01:51:16.363Z,95.40
2023-05-25T01:53:45.843Z,95.50
2023-05-25T01:56:14.405Z,95.60
2023-05-25T01:58:44.417Z,95.60
2023-05-25T02:01:15.757Z,95.70
2023-05-25T02:03:44.788Z,95.80
2023-05-25T02:06:13.140Z,95.80
2023-05-25T02:08:40.032Z,95.90
2023-05-25T02:11:07.000Z,96.00
2023-05-25T02:13:33.938Z,96.00
2023-05-25T02:16:01.026Z,96.10
2023-05-25T02:18:28.416Z,96.20
2023-05-25T02:20:55.550Z,96.20
2023-05-25T02:23:23.831Z,96.30
2023-05-25T02:25:51.760Z,96.40
2023-05-25T02:28:18.860Z,96.40
2023-05-25T02:30:45.851Z,96.50
2023-05-25T02:33:13.845Z,96.50
2023-05-25T02:35:41.926Z,96.60
2023-05-25T02:38:10.468Z,96.60
2023-05-25T02:40:38.868Z,96.70
2023-05-25T02:43:05.959Z,96.80
2023-05-25T02:45:33.189Z,96.90
2023-05-25T02:48:00.426Z,97.00
2023-05-25T02:50:28.101Z,97.10
2023-05-25T02:52:57.356Z,97.20
2023-05-25T02:55:26.128Z,97.20
2023-05-25T02:57:54.897Z,97.20
2023-05-25T03:00:42.910Z,97.30
2023-05-25T03:03:10.043Z,97.40
2023-05-25T03:05:38.514Z,97.40
2023-05-25T03:08:05.741Z,97.40
2023-05-25T03:10:32.756Z,97.60
2023-05-25T03:13:01.081Z,97.60
2023-05-25T03:15:28.101Z,97.70
2023-05-25T03:17:56.878Z,97.70
2023-05-25T03:20:24.809Z,97.70
2023-05-25T03:22:52.306Z,97.80
2023-05-25T03:25:19.275Z,98.00
2023-05-25T03:27:46.457Z,98.10
2023-05-25T03:30:15.182Z,98.10
2023-05-25T03:32:42.804Z,98.10
2023-05-25T03:35:10.026Z,98.20
2023-05-25T03:37:37.807Z,98.20
2023-05-25T03:40:06.810Z,98.60
2023-05-25T03:42:33.735Z,98.90
2023-05-25T03:45:00.811Z,98.80
2023-05-25T03:47:29.855Z,98.80
2023-05-25T03:49:57.218Z,98.60
2023-05-25T03:52:24.119Z,98.60
2023-05-25T03:54:51.074Z,98.60
2023-05-25T03:57:18.060Z,98.50
2023-05-25T03:59:45.088Z,98.50
2023-05-25T04:02:11.972Z,98.40
2023-05-25T04:04:41.827Z,98.40
2023-05-25T04:07:08.906Z,98.30
2023-05-25T04:09:35.936Z,98.40
2023-05-25T04:12:03.304Z,98.50
2023-05-25T04:14:30.622Z,98.50
2023-05-25T04:16:57.752Z,98.90
2023-05-25T04:19:24.659Z,98.90
2023-05-25T04:21:53.062Z,98.80
2023-05-25T04:24:19.982Z,98.70
2023-05-25T04:26:47.042Z,98.70
2023-05-25T04:29:14.246Z,98.70
2023-05-25T04:32:09.526Z,98.80
2023-05-25T04:34:53.377Z,98.80
2023-05-25T04:37:27.578Z,98.80
2023-05-25T04:39:57.661Z,98.90
2023-05-25T04:42:24.771Z,98.80
2023-05-25T04:44:55.773Z,98.70
2023-05-25T04:47:25.060Z,98.70
2023-05-25T04:49:52.894Z,98.70
2023-05-25T04:52:19.809Z,98.70
2023-05-25T04:54:48.192Z,98.70
2023-05-25T04:57:16.208Z,98.70
2023-05-25T04:59:43.157Z,98.80
2023-05-25T05:02:10.023Z,98.90
2023-05-25T05:04:38.504Z,98.90
2023-05-25T05:07:08.113Z,99.00
2023-05-25T05:09:35.373Z,98.90
2023-05-25T05:12:04.750Z,98.90
2023-05-25T05:14:36.555Z,98.90
2023-05-25T05:17:03.620Z,98.90
2023-05-25T05:19:31.387Z,98.80
2023-05-25T05:21:58.322Z,98.70
2023-05-25T05:24:27.335Z,98.80
2023-05-25T05:26:58.072Z,98.90
2023-05-25T05:29:34.366Z,98.70
2023-05-25T05:32:01.466Z,98.90
2023-05-25T05:34:28.413Z,98.80
2023-05-25T05:36:58.882Z,98.80
2023-05-25T05:39:28.070Z,98.90
2023-05-25T05:41:55.923Z,98.90
2023-05-25T05:44:25.987Z,99.00
2023-05-25T05:47:00.538Z,99.10
2023-05-25T05:49:28.900Z,99.30
2023-05-25T05:51:56.266Z,99.30
2023-05-25T05:54:23.640Z,99.20
2023-05-25T05:56:50.963Z,99.10
2023-05-25T05:59:18.050Z,99.20
2023-05-25T06:01:45.447Z,99.10
2023-05-25T06:04:15.747Z,99.00
2023-05-25T06:06:43.251Z,99.00
2023-05-25T06:09:10.348Z,98.80
2023-05-25T06:11:39.925Z,98.70
2023-05-25T06:14:07.694Z,98.60
2023-05-25T06:16:36.457Z,98.50
2023-05-25T06:19:03.625Z,98.60
2023-05-25T06:21:31.894Z,98.80
2023-05-25T06:23:58.883Z,98.60
2023-05-25T06:26:27.075Z,98.60
2023-05-25T06:28:54.726Z,98.40
2023-05-25T06:31:22.138Z,98.40
2023-05-25T06:33:49.205Z,98.80
2023-05-25T06:36:16.263Z,98.60
2023-05-25T06:38:47.204Z,98.60
2023-05-25T06:41:15.407Z,98.70
2023-05-25T06:43:43.385Z,98.60
2023-05-25T06:46:18.249Z,98.60
2023-05-25T06:48:46.083Z,98.50
2023-05-25T06:51:13.337Z,98.70
2023-05-25T06:53:40.647Z,98.70
2023-05-25T06:56:09.016Z,98.80
2023-05-25T06:58:35.955Z,98.40
2023-05-25T07:01:03.466Z,98.00
2023-05-25T07:03:30.684Z,97.80
2023-05-25T07:05:58.314Z,97.90
2023-05-25T07:08:25.354Z,97.70
2023-05-25T07:10:52.276Z,97.60
2023-05-25T07:13:20.585Z,97.70
2023-05-25T07:15:48.000Z,97.70
2023-05-25T07:18:15.361Z,97.60
2023-05-25T07:20:42.634Z,97.50
2023-05-25T07:23:10.608Z,97.60
2023-05-25T07:25:38.637Z,97.40
2023-05-25T07:28:05.537Z,97.10
2023-05-25T07:30:33.972Z,97.10
2023-05-25T07:33:01.221Z,97.00
2023-05-25T07:35:28.302Z,97.00
2023-05-25T07:37:58.723Z,96.90
2023-05-25T07:40:25.762Z,97.10
2023-05-25T07:42:52.877Z,97.20
2023-05-25T07:45:19.931Z,97.30
2023-05-25T07:47:48.249Z,97.10
2023-05-25T07:50:15.549Z,96.80
2023-05-25T07:52:42.847Z,96.60
2023-05-25T07:55:10.518Z,96.40
2023-05-25T07:57:37.488Z,96.20
2023-05-25T08:00:07.784Z,96.10
2023-05-25T08:02:40.001Z,96.00
2023-05-25T08:05:10.152Z,96.20
2023-05-25T08:07:37.181Z,96.30
2023-05-25T08:10:04.760Z,96.50
2023-05-25T08:12:47.163Z,96.40
2023-05-25T08:15:16.514Z,96.60
2023-05-25T08:17:43.772Z,96.80
2023-05-25T08:20:14.699Z,96.60
2023-05-25T08:22:41.659Z,96.70
2023-05-25T08:25:08.957Z,96.40
2023-05-25T08:27:36.603Z,96.50
2023-05-25T08:30:05.891Z,96.30
2023-05-25T08:32:32.902Z,96.40
2023-05-25T08:34:59.964Z,96.50
2023-05-25T08:37:29.306Z,96.10
2023-05-25T08:39:56.538Z,96.00
2023-05-25T08:42:23.922Z,95.70
2023-05-25T08:44:50.884Z,96.00
2023-05-25T08:47:21.932Z,95.70
2023-05-25T08:49:50.171Z,95.60
2023-05-25T08:52:22.604Z,95.40
2023-05-25T08:54:54.027Z,95.70
2023-05-25T08:57:26.701Z,95.60
2023-05-25T09:00:00.644Z,95.70
2023-05-25T09:02:34.566Z,95.20
2023-05-25T09:05:02.135Z,95.00
2023-05-25T09:07:30.083Z,94.60
2023-05-25T09:09:58.823Z,94.60
2023-05-25T09:12:26.035Z,94.00
2023-05-25T09:14:54.032Z,94.10
2023-05-25T09:17:21.523Z,93.80
2023-05-25T09:19:49.946Z,93.50
2023-05-25T09:22:17.212Z,93.60
2023-05-25T09:24:45.459Z,93.40
2023-05-25T09:27:17.604Z,92.40
2023-05-25T09:29:44.975Z,92.40
2023-05-25T09:32:11.897Z,92.00
2023-05-25T09:34:39.885Z,92.00
2023-05-25T09:37:12.480Z,91.40
2023-05-25T09:39:40.517Z,91.50
2023-05-25T09:42:07.640Z,91.50
2023-05-25T09:44:36.012Z,91.20
2023-05-25T09:47:03.379Z,91.00
2023-05-25T09:49:30.321Z,90.30
2023-05-25T09:51:57.391Z,89.70
2023-05-25T09:54:25.336Z,90.20
2023-05-25T09:56:52.377Z,90.40
2023-05-25T09:59:19.286Z,90.40
2023-05-25T10:01:51.676Z,90.40
2023-05-25T10:04:18.660Z,90.50
2023-05-25T10:06:49.727Z,90.50
2023-05-25T10:09:19.161Z,90.60
2023-05-25T10:11:46.575Z,89.70
2023-05-25T10:14:17.426Z,88.10
2023-05-25T10:16:49.057Z,88.10
2023-05-25T10:19:21.818Z,88.30
2023-05-25T10:21:54.899Z,87.10
2023-05-25T10:24:26.772Z,86.10
2023-05-25T10:26:58.279Z,85.60
2023-05-25T10:29:26.383Z,84.20
2023-05-25T10:31:54.747Z,84.20
2023-05-25T10:34:22.573Z,82.10
2023-05-25T10:36:51.233Z,82.00
2023-05-25T10:39:20.341Z,82.00
2023-05-25T10:41:48.260Z,81.50
2023-05-25T10:44:16.504Z,79.60
2023-05-25T10:46:43.621Z,78.10
2023-05-25T10:49:11.994Z,77.90
2023-05-25T10:51:39.333Z,76.40
2023-05-25T10:54:06.431Z,76.20
2023-05-25T10:56:33.751Z,76.10
2023-05-25T10:59:02.057Z,75.80
2023-05-25T11:01:33.517Z,75.60
2023-05-25T11:04:17.801Z,75.70
2023-05-25T11:07:05.487Z,76.20
2023-05-25T11:09:32.617Z,76.20
2023-05-25T11:12:04.339Z,75.90
2023-05-25T11:14:33.126Z,76.40
2023-05-25T11:17:08.274Z,76.40
2023-05-25T11:19:50.796Z,76.50
2023-05-25T11:22:22.881Z,77.20
2023-05-25T11:24:51.139Z,77.80
2023-05-25T11:27:23.613Z,77.50
2023-05-25T11:29:51.418Z,78.20
2023-05-25T11:32:18.446Z,78.90
2023-05-25T11:34:47.821Z,78.90
2023-05-25T11:37:17.467Z,79.00
2023-05-25T11:39:47.698Z,79.00
2023-05-25T11:42:15.432Z,79.50
2023-05-25T11:44:43.518Z,79.00
2023-05-25T11:47:19.457Z,79.60
2023-05-25T11:49:49.782Z,80.10
2023-05-25T11:52:18.093Z,80.00
2023-05-25T11:54:45.972Z,80.80
2023-05-25T11:57:17.905Z,81.20
2023-05-25T11:59:49.904Z,81.20
2023-05-25T12:02:17.519Z,81.80
2023-05-25T12:04:55.255Z,82.20
2023-05-25T12:07:22.761Z,81.60
2023-05-25T12:09:49.812Z,82.30
2023-05-25T12:12:16.920Z,82.10
2023-05-25T12:14:47.655Z,81.60
2023-05-25T12:17:14.859Z,81.10
2023-05-25T12:19:41.973Z,81.10
2023-05-25T12:22:11.425Z,80.50
2023-05-25T12:24:38.413Z,80.90
2023-05-25T12:27:16.935Z,79.00
2023-05-25T12:29:46.173Z,79.00
2023-05-25T12:32:13.220Z,79.60
2023-05-25T12:34:40.110Z,78.40
2023-05-25T12:37:20.046Z,78.30
2023-05-25T12:39:47.708Z,79.40
2023-05-25T12:42:15.901Z,77.00
2023-05-25T12:44:43.834Z,78.30
2023-05-25T12:47:13.177Z,77.80
2023-05-25T12:49:41.626Z,77.10
2023-05-25T12:52:09.979Z,78.40
2023-05-25T12:54:41.179Z,77.80
2023-05-25T12:57:09.577Z,75.90
2023-05-25T12:59:37.747Z,76.50
2023-05-25T13:02:07.225Z,76.80
2023-05-25T13:04:35.507Z,76.50
2023-05-25T13:07:02.719Z,76.50
2023-05-25T13:09:30.802Z,77.20
2023-05-25T13:11:59.452Z,78.00
2023-05-25T13:14:26.933Z,79.10
2023-05-25T13:16:54.816Z,78.20
2023-05-25T13:19:24.263Z,78.50
2023-05-25T13:21:51.915Z,78.20
2023-05-25T13:24:19.750Z,78.30
2023-05-25T13:26:48.476Z,78.00
2023-05-25T13:29:19.047Z,78.70
2023-05-25T13:31:46.754Z,78.70
2023-05-25T13:34:13.796Z,78.80
2023-05-25T13:36:42.150Z,76.80
2023-05-25T13:39:13.381Z,76.40
2023-05-25T13:41:40.985Z,76.60
2023-05-25T13:44:07.882Z,75.40
2023-05-25T13:46:37.662Z,77.00
2023-05-25T13:49:04.697Z,76.50
2023-05-25T13:51:31.806Z,75.80
2023-05-25T13:53:58.854Z,75.80
2023-05-25T13:56:25.890Z,76.20
2023-05-25T13:58:53.956Z,76.20
2023-05-25T14:01:21.012Z,76.50
2023-05-25T14:03:49.579Z,76.80
2023-05-25T14:06:16.665Z,76.30
2023-05-25T14:08:43.596Z,77.40
2023-05-25T14:11:10.655Z,77.10
2023-05-25T14:13:37.661Z,76.70
2023-05-25T14:16:04.779Z,76.40
2023-05-25T14:18:31.935Z,77.50
2023-05-25T14:21:00.448Z,76.60
2023-05-25T14:23:27.338Z,75.60
2023-05-25T14:25:54.295Z,74.90
2023-05-25T14:28:21.187Z,74.20
2023-05-25T14:30:48.149Z,73.20
2023-05-25T14:33:17.223Z,74.30
2023-05-25T14:35:44.320Z,75.10
2023-05-25T14:38:12.760Z,75.80
2023-05-25T14:40:39.694Z,76.60
2023-05-25T14:43:06.605Z,76.50
2023-05-25T14:45:33.539Z,75.70
2023-05-25T14:48:15.419Z,76.10
2023-05-25T14:50:44.592Z,76.60
2023-05-25T14:53:13.134Z,76.50
2023-05-25T14:55:41.008Z,77.50
2023-05-25T14:58:08.227Z,77.60
2023-05-25T15:00:35.253Z,77.90
2023-05-25T15:03:02.278Z,78.00
2023-05-25T15:05:29.308Z,77.70
2023-05-25T15:07:56.518Z,77.50
2023-05-25T15:10:24.878Z,77.10
2023-05-25T15:12:51.815Z,76.50
2023-05-25T15:15:18.757Z,75.00
2023-05-25T15:17:45.686Z,75.20
2023-05-25T15:20:12.804Z,75.20
2023-05-25T15:22:39.798Z,75.50
2023-05-25T15:25:07.047Z,74.00
2023-05-25T15:27:35.402Z,74.20
2023-05-25T15:30:02.370Z,74.60
2023-05-25T15:32:29.272Z,74.20
2023-05-25T15:34:56.224Z,74.90
2023-05-25T15:37:23.145Z,74.50
2023-05-25T15:39:50.080Z,75.20
2023-05-25T15:42:17.019Z,75.00
2023-05-25T15:44:45.296Z,76.00
2023-05-25T15:47:12.257Z,76.70
2023-05-25T15:49:39.344Z,76.50
2023-05-25T15:52:06.905Z,76.90
2023-05-25T15:54:33.920Z,76.60
2023-05-25T15:57:02.128Z,77.20
2023-05-25T15:59:29.103Z,76.40
2023-05-25T16:01:57.450Z,76.70
2023-05-25T16:04:24.614Z,77.50
2023-05-25T16:06:51.662Z,77.20
2023-05-25T16:09:18.581Z,76.80
2023-05-25T16:11:45.540Z,77.40
2023-05-25T16:14:12.568Z,77.80
2023-05-25T16:16:39.577Z,77.80
2023-05-25T16:19:07.956Z,78.40
2023-05-25T16:21:37.673Z,78.10
2023-05-25T16:24:05.190Z,78.50
2023-05-25T16:26:32.200Z,78.10
2023-05-25T16:28:59.176Z,78.60
2023-05-25T16:31:26.336Z,78.90
2023-05-25T16:33:53.309Z,79.20
2023-05-25T16:36:21.608Z,79.00
2023-05-25T16:38:48.583Z,79.40
2023-05-25T16:41:15.616Z,79.50
2023-05-25T16:43:42.578Z,79.80
2023-05-25T16:46:09.572Z,80.00
2023-05-25T16:48:36.546Z,80.30
2023-05-25T16:51:03.662Z,80.50
2023-05-25T16:53:31.968Z,80.40
2023-05-25T16:55:58.922Z,80.80
2023-05-25T16:58:26.052Z,80.70
2023-05-25T17:00:52.962Z,81.10
2023-05-25T17:03:20.029Z,81.50
2023-05-25T17:05:46.992Z,81.50
2023-05-25T17:08:14.042Z,82.00
2023-05-25T17:10:46.157Z,82.20
2023-05-25T17:13:13.173Z,81.60
2023-05-25T17:15:40.154Z,81.80
2023-05-25T17:18:07.262Z,82.00
2023-05-25T17:20:34.216Z,82.40
2023-05-25T17:23:01.131Z,82.70
2023-05-25T17:25:28.376Z,82.90
2023-05-25T17:27:56.664Z,83.30
2023-05-25T17:30:23.540Z,83.30
2023-05-25T17:32:50.487Z,83.50
2023-05-25T17:35:17.535Z,83.50
2023-05-25T17:37:44.494Z,84.00
2023-05-25T17:40:12.618Z,84.10
2023-05-25T17:42:40.479Z,84.00
2023-05-25T17:45:11.618Z,83.60
2023-05-25T17:47:38.737Z,84.00
2023-05-25T17:50:06.714Z,83.80
2023-05-25T17:52:33.598Z,84.00
2023-05-25T17:55:00.524Z,84.60
2023-05-25T17:57:27.395Z,84.50
2023-05-25T17:59:54.299Z,85.00
2023-05-25T18:02:23.330Z,85.00
2023-05-25T18:04:50.519Z,85.00
2023-05-25T18:07:17.972Z,85.40
2023-05-25T18:09:44.876Z,85.50
2023-05-25T18:12:11.819Z,85.40
2023-05-25T18:14:38.797Z,85.50
2023-05-25T18:17:06.014Z,85.80
2023-05-25T18:19:34.390Z,86.40
2023-05-25T18:22:01.274Z,86.50
2023-05-25T18:24:28.202Z,86.40
2023-05-25T18:26:55.175Z,86.30
2023-05-25T18:29:22.078Z,86.60
2023-05-25T18:31:49.123Z,86.60
2023-05-25T18:34:16.274Z,86.70
2023-05-25T18:36:44.616Z,86.70
2023-05-25T18:39:11.548Z,86.70
2023-05-25T18:41:39.695Z,86.80
2023-05-25T18:44:07.588Z,87.10
2023-05-25T18:46:34.781Z,87.10
2023-05-25T18:49:01.857Z,87.40
2023-05-25T18:51:28.789Z,87.60
2023-05-25T18:53:58.653Z,87.90
2023-05-25T18:56:25.925Z,88.00
2023-05-25T18:58:55.369Z,88.50
2023-05-25T19:01:23.012Z,88.50
2023-05-25T19:03:50.008Z,88.50
2023-05-25T19:06:17.114Z,88.70
2023-05-25T19:08:44.297Z,89.00
2023-05-25T19:11:12.711Z,89.00
2023-05-25T19:13:39.613Z,88.80
2023-05-25T19:16:06.873Z,89.20
2023-05-25T19:18:33.886Z,89.30
2023-05-25T19:21:02.193Z,89.70
2023-05-25T19:23:29.181Z,89.70
2023-05-25T19:25:56.068Z,89.90
2023-05-25T19:28:24.377Z,90.00
2023-05-25T19:30:51.247Z,90.10
2023-05-25T19:33:18.344Z,90.10
2023-05-25T19:35:46.218Z,90.20
2023-05-25T19:38:13.552Z,90.30
2023-05-25T19:40:40.611Z,90.30
2023-05-25T19:43:07.502Z,90.30
2023-05-25T19:45:35.983Z,90.50
2023-05-25T19:48:03.392Z,90.50
2023-05-25T19:50:30.855Z,90.60
2023-05-25T19:52:58.557Z,90.60
2023-05-25T19:55:25.734Z,90.80
2023-05-25T19:57:52.846Z,90.90
2023-05-25T20:00:26.728Z,90.80
2023-05-25T20:02:55.910Z,90.90
2023-05-25T20:05:23.111Z,91.00
2023-05-25T20:07:52.241Z,91.00
2023-05-25T20:10:19.595Z,91.00
2023-05-25T20:12:46.779Z,91.10
2023-05-25T20:15:13.807Z,91.10
2023-05-25T20:17:40.759Z,91.20
2023-05-25T20:20:09.871Z,91.30
2023-05-25T20:22:37.405Z,91.30
2023-05-25T20:25:04.725Z,91.40
2023-05-25T20:27:31.652Z,91.60
2023-05-25T20:29:58.573Z,91.80
2023-05-25T20:32:25.609Z,91.90
2023-05-25T20:34:52.571Z,92.10
2023-05-25T20:37:20.871Z,92.20
2023-05-25T20:39:47.792Z,92.50
2023-05-25T20:42:14.739Z,92.60
2023-05-25T20:44:41.713Z,92.90
2023-05-25T20:47:08.816Z,93.00
2023-05-25T20:49:35.841Z,93.00
2023-05-25T20:52:02.864Z,93.20
2023-05-25T20:54:31.461Z,93.30
2023-05-25T20:56:58.339Z,93.50
2023-05-25T20:59:25.381Z,93.60
2023-05-25T21:01:52.288Z,93.70
2023-05-25T21:04:19.726Z,94.00
2023-05-25T21:06:46.964Z,94.10
2023-05-25T21:09:13.811Z,94.30
2023-05-25T21:11:41.954Z,94.40
2023-05-25T21:14:08.788Z,94.40
2023-05-25T21:16:35.935Z,94.50
2023-05-25T21:19:02.899Z,94.60
2023-05-25T21:21:33.794Z,94.70
2023-05-25T21:24:01.369Z,94.80
2023-05-25T21:26:28.418Z,94.90
2023-05-25T21:28:57.022Z,95.00
2023-05-25T21:31:24.323Z,95.10
2023-05-25T21:33:53.072Z,95.10
2023-05-25T21:36:20.727Z,95.20
2023-05-25T21:38:47.634Z,95.20
2023-05-25T21:41:14.974Z,95.30
2023-05-25T21:43:41.888Z,95.30
2023-05-25T21:46:10.145Z,95.40
2023-05-25T21:48:37.110Z,95.90
2023-05-25T21:51:04.297Z,95.60
2023-05-25T21:53:31.214Z,95.90
2023-05-25T21:55:58.130Z,95.70
2023-05-25T21:58:25.095Z,95.80
2023-05-25T22:00:52.055Z,95.90
2023-05-25T22:03:20.380Z,96.10
2023-05-25T22:05:47.283Z,96.20
2023-05-25T22:08:14.197Z,96.10
2023-05-25T22:10:41.127Z,96.30
2023-05-25T22:13:08.297Z,96.40
2023-05-25T22:15:35.312Z,96.40
2023-05-25T22:18:02.375Z,96.40
2023-05-25T22:20:30.727Z,96.50
2023-05-25T22:22:57.790Z,96.50
2023-05-25T22:25:25.120Z,96.50
2023-05-25T22:27:52.037Z,96.50
2023-05-25T22:30:19.356Z,96.50
2023-05-25T22:32:46.289Z,96.50
2023-05-25T22:35:13.228Z,96.50
2023-05-25T22:37:41.806Z,96.20
2023-05-25T22:40:09.701Z,96.30
2023-05-25T22:42:36.750Z,96.40
2023-05-25T22:45:04.171Z,96.40
2023-05-25T22:47:31.079Z,96.30
2023-05-25T22:49:58.005Z,96.30
2023-05-25T22:52:24.899Z,96.30
2023-05-25T22:54:53.087Z,96.40
2023-05-25T22:57:19.973Z,96.30
2023-05-25T22:59:46.832Z,96.40
2023-05-25T23:02:13.846Z,96.40
2023-05-25T23:04:41.001Z,96.40
2023-05-25T23:07:07.970Z,96.40
2023-05-25T23:09:34.883Z,96.40
2023-05-25T23:12:03.192Z,96.40
2023-05-25T23:14:30.478Z,96.40
2023-05-25T23:16:57.491Z,96.80
2023-05-25T23:19:25.752Z,96.30
2023-05-25T23:21:54.216Z,96.30
2023-05-25T23:24:21.145Z,96.30
2023-05-25T23:26:48.175Z,96.30
2023-05-25T23:29:16.430Z,96.40
2023-05-25T23:31:43.482Z,96.30
2023-05-25T23:34:10.444Z,96.30
2023-05-25T23:36:37.372Z,96.20
2023-05-25T23:39:04.342Z,96.30
2023-05-25T23:41:31.324Z,96.20
2023-05-25T23:43:58.265Z,96.20
2023-05-25T23:46:27.804Z,96.30
2023-05-25T23:48:54.760Z,96.20
2023-05-25T23:51:21.675Z,96.30
2023-05-25T23:53:48.577Z,96.30
2023-05-25T23:56:15.629Z,96.20
2023-05-25T23:58:43.667Z,96.20
